createdAt,value
2022-09-12T00:01:05.584Z,78.35
2022-09-12T00:03:33.525Z,78.57
2022-09-12T00:06:01.465Z,78.42
2022-09-12T00:08:29.348Z,79.38
2022-09-12T00:10:58.525Z,78.90
2022-09-12T00:13:26.324Z,79.68
2022-09-12T00:15:54.162Z,79.09
2022-09-12T00:18:21.991Z,79.36
2022-09-12T00:20:50.154Z,79.23
2022-09-12T00:23:18.032Z,78.93
2022-09-12T00:25:47.676Z,78.15
2022-09-12T00:28:19.107Z,77.48
2022-09-12T00:30:49.070Z,77.78
2022-09-12T00:33:18.832Z,78.28
2022-09-12T00:35:48.498Z,78.00
2022-09-12T00:38:17.844Z,78.24
2022-09-12T00:40:45.815Z,78.73
2022-09-12T00:43:16.628Z,79.32
2022-09-12T00:45:45.025Z,79.60
2022-09-12T00:48:24.435Z,79.99
2022-09-12T00:50:52.435Z,80.38
2022-09-12T00:53:20.386Z,79.96
2022-09-12T00:55:52.308Z,79.45
2022-09-12T00:58:24.378Z,80.30
2022-09-12T01:00:52.769Z,80.71
2022-09-12T01:03:23.337Z,81.15
2022-09-12T01:06:00.701Z,81.42
2022-09-12T01:08:30.316Z,81.76
2022-09-12T01:10:58.758Z,82.59
2022-09-12T01:13:29.108Z,82.66
2022-09-12T01:15:57.447Z,82.94
2022-09-12T01:18:32.615Z,83.04
2022-09-12T01:21:12.499Z,83.02
2022-09-12T01:24:25.291Z,82.36
2022-09-12T01:27:25.744Z,81.50
2022-09-12T01:30:31.571Z,80.43
2022-09-12T01:33:31.726Z,81.19
2022-09-12T01:36:17.145Z,80.33
2022-09-12T01:38:49.999Z,80.28
2022-09-12T01:41:26.060Z,80.92
2022-09-12T01:44:01.767Z,81.39
2022-09-12T01:46:36.839Z,82.50
2022-09-12T01:49:12.890Z,82.88
2022-09-12T01:51:45.446Z,83.55
2022-09-12T01:54:18.480Z,83.67
2022-09-12T01:56:50.903Z,84.09
2022-09-12T01:59:24.986Z,84.35
2022-09-12T02:02:00.518Z,84.02
2022-09-12T02:04:34.264Z,84.55
2022-09-12T02:07:09.720Z,84.23
2022-09-12T02:09:42.799Z,84.40
2022-09-12T02:12:15.056Z,84.30
2022-09-12T02:14:47.482Z,84.82
2022-09-12T02:17:21.055Z,85.50
2022-09-12T02:19:53.975Z,84.28
2022-09-12T02:22:26.371Z,83.83
2022-09-12T02:24:59.913Z,84.30
2022-09-12T02:27:34.704Z,84.71
2022-09-12T02:30:02.675Z,85.51
2022-09-12T02:32:39.131Z,85.16
2022-09-12T02:35:12.124Z,84.83
2022-09-12T02:37:57.147Z,85.37
2022-09-12T02:40:25.819Z,84.59
2022-09-12T02:42:53.877Z,84.16
2022-09-12T02:45:23.254Z,85.61
2022-09-12T02:48:28.548Z,84.81
2022-09-12T02:50:57.355Z,84.95
2022-09-12T02:53:28.506Z,84.27
2022-09-12T02:55:56.571Z,84.40
2022-09-12T02:58:27.053Z,86.10
2022-09-12T03:01:06.081Z,85.83
2022-09-12T03:03:53.623Z,85.26
2022-09-12T03:06:31.970Z,85.04
2022-09-12T03:09:10.488Z,85.19
2022-09-12T03:11:52.077Z,85.36
2022-09-12T03:14:35.685Z,84.27
2022-09-12T03:17:09.141Z,83.84
2022-09-12T03:19:47.515Z,83.80
2022-09-12T03:22:21.694Z,84.35
2022-09-12T03:24:55.419Z,85.28
2022-09-12T03:27:31.092Z,85.46
2022-09-12T03:30:00.134Z,84.61
2022-09-12T03:32:45.297Z,84.95
2022-09-12T03:35:17.928Z,85.17
2022-09-12T03:37:48.626Z,85.69
2022-09-12T03:40:16.820Z,84.28
2022-09-12T03:42:44.814Z,83.81
2022-09-12T03:45:13.084Z,84.62
2022-09-12T03:47:41.306Z,84.09
2022-09-12T03:50:09.653Z,84.01
2022-09-12T03:52:38.852Z,84.09
2022-09-12T03:55:07.848Z,83.74
2022-09-12T03:57:35.697Z,83.87
2022-09-12T04:00:04.847Z,83.45
2022-09-12T04:02:40.438Z,84.26
2022-09-12T04:05:08.645Z,84.17
2022-09-12T04:07:37.849Z,84.76
2022-09-12T04:10:06.436Z,85.32
2022-09-12T04:12:35.570Z,83.85
2022-09-12T04:15:03.474Z,84.56
2022-09-12T04:17:31.350Z,84.86
2022-09-12T04:19:59.157Z,86.04
2022-09-12T04:22:27.012Z,85.63
2022-09-12T04:24:56.274Z,85.26
2022-09-12T04:27:24.105Z,85.92
2022-09-12T04:29:51.953Z,85.60
2022-09-12T04:32:20.011Z,85.55
2022-09-12T04:34:47.865Z,85.18
2022-09-12T04:37:16.841Z,84.60
2022-09-12T04:39:44.776Z,84.87
2022-09-12T04:42:13.996Z,84.32
2022-09-12T04:44:41.852Z,84.38
2022-09-12T04:47:09.703Z,84.34
2022-09-12T04:49:37.694Z,85.01
2022-09-12T04:52:05.695Z,84.23
2022-09-12T04:54:34.796Z,85.33
2022-09-12T04:57:02.631Z,84.96
2022-09-12T04:59:31.876Z,85.43
2022-09-12T05:01:59.883Z,84.12
2022-09-12T05:04:27.830Z,83.43
2022-09-12T05:06:55.667Z,83.26
2022-09-12T05:09:23.600Z,83.21
2022-09-12T05:12:06.881Z,85.02
2022-09-12T05:14:36.256Z,84.95
2022-09-12T05:17:06.018Z,84.98
2022-09-12T05:19:34.106Z,84.55
2022-09-12T05:22:02.496Z,84.56
2022-09-12T05:24:30.436Z,83.44
2022-09-12T05:26:58.253Z,83.91
2022-09-12T05:29:26.285Z,85.30
2022-09-12T05:31:55.528Z,84.87
2022-09-12T05:34:23.687Z,84.93
2022-09-12T05:36:51.519Z,84.18
2022-09-12T05:39:19.538Z,84.21
2022-09-12T05:41:47.535Z,84.67
2022-09-12T05:44:15.905Z,84.02
2022-09-12T05:46:45.471Z,83.81
2022-09-12T05:49:14.872Z,83.90
2022-09-12T05:51:44.468Z,84.23
2022-09-12T05:54:14.349Z,83.74
2022-09-12T05:56:44.308Z,82.63
2022-09-12T05:59:14.234Z,83.61
2022-09-12T06:01:42.330Z,83.00
2022-09-12T06:04:10.723Z,83.36
2022-09-12T06:06:43.494Z,83.03
2022-09-12T06:09:12.042Z,83.36
2022-09-12T06:11:41.867Z,83.77
2022-09-12T06:14:11.674Z,83.63
2022-09-12T06:16:40.735Z,83.67
2022-09-12T06:19:13.902Z,83.28
2022-09-12T06:21:43.760Z,83.11
2022-09-12T06:24:12.093Z,82.79
2022-09-12T06:26:40.017Z,82.78
2022-09-12T06:29:08.478Z,83.37
2022-09-12T06:31:38.799Z,83.06
2022-09-12T06:34:08.432Z,84.07
2022-09-12T06:36:38.880Z,83.72
2022-09-12T06:39:11.038Z,83.64
2022-09-12T06:41:43.522Z,83.02
2022-09-12T06:44:14.016Z,82.36
2022-09-12T06:46:41.906Z,81.43
2022-09-12T06:49:10.051Z,83.22
2022-09-12T06:51:38.024Z,80.19
2022-09-12T06:54:06.464Z,80.75
2022-09-12T06:56:35.965Z,79.48
2022-09-12T06:59:03.819Z,81.29
2022-09-12T07:01:33.180Z,78.92
2022-09-12T07:04:03.097Z,78.64
2022-09-12T07:06:32.592Z,78.35
2022-09-12T07:09:01.310Z,78.01
2022-09-12T07:11:31.850Z,77.65
2022-09-12T07:14:03.123Z,79.16
2022-09-12T07:16:31.143Z,80.86
2022-09-12T07:19:01.349Z,79.69
2022-09-12T07:21:29.947Z,80.53
2022-09-12T07:23:58.785Z,78.11
2022-09-12T07:26:29.487Z,77.85
2022-09-12T07:29:18.643Z,76.40
2022-09-12T07:31:48.417Z,74.17
2022-09-12T07:34:17.935Z,76.36
2022-09-12T07:36:45.736Z,75.67
2022-09-12T07:39:13.584Z,75.01
2022-09-12T07:41:41.865Z,77.19
2022-09-12T07:44:09.756Z,77.90
2022-09-12T07:46:37.810Z,76.90
2022-09-12T07:49:08.449Z,77.51
2022-09-12T07:51:36.543Z,76.83
2022-09-12T07:54:09.275Z,77.28
2022-09-12T07:56:39.323Z,77.64
2022-09-12T07:59:07.820Z,77.77
2022-09-12T08:01:36.299Z,76.95
2022-09-12T08:04:05.274Z,76.24
2022-09-12T08:06:36.081Z,76.01
2022-09-12T08:09:05.717Z,75.67
2022-09-12T08:11:33.616Z,73.75
2022-09-12T08:14:03.054Z,73.85
2022-09-12T08:16:33.117Z,73.40
2022-09-12T08:19:02.260Z,75.93
2022-09-12T08:21:31.802Z,73.42
2022-09-12T08:24:03.317Z,74.01
2022-09-12T08:26:31.936Z,71.39
2022-09-12T08:29:00.546Z,71.38
2022-09-12T08:31:29.431Z,72.22
2022-09-12T08:33:58.678Z,72.20
2022-09-12T08:36:29.574Z,70.29
2022-09-12T08:39:00.397Z,71.77
2022-09-12T08:41:34.845Z,70.66
2022-09-12T08:44:19.866Z,71.54
2022-09-12T08:47:01.919Z,72.07
2022-09-12T08:49:33.733Z,71.04
2022-09-12T08:52:08.088Z,70.19
2022-09-12T08:54:36.199Z,69.61
2022-09-12T08:57:07.762Z,67.32
2022-09-12T08:59:39.542Z,66.13
2022-09-12T09:02:30.596Z,67.10
2022-09-12T09:05:06.416Z,67.39
2022-09-12T09:08:05.458Z,65.91
2022-09-12T09:10:42.152Z,67.42
2022-09-12T09:13:39.501Z,65.32
2022-09-12T09:16:11.979Z,65.65
2022-09-12T09:18:41.265Z,65.31
2022-09-12T09:21:21.652Z,64.16
2022-09-12T09:23:54.944Z,63.83
2022-09-12T09:26:26.730Z,59.62
2022-09-12T09:29:03.386Z,58.51
2022-09-12T09:31:35.344Z,61.10
2022-09-12T09:34:07.009Z,61.30
2022-09-12T09:36:44.024Z,61.34
2022-09-12T09:39:22.003Z,60.70
2022-09-12T09:42:00.783Z,60.40
2022-09-12T09:44:30.849Z,61.17
2022-09-12T09:47:00.772Z,57.77
2022-09-12T09:49:32.283Z,57.12
2022-09-12T09:52:02.005Z,55.79
2022-09-12T09:54:35.415Z,57.10
2022-09-12T09:57:05.072Z,57.90
2022-09-12T09:59:35.166Z,56.06
2022-09-12T10:02:24.028Z,55.71
2022-09-12T10:04:56.228Z,56.29
2022-09-12T10:07:25.594Z,58.83
2022-09-12T10:10:07.758Z,53.57
2022-09-12T10:12:36.357Z,54.44
2022-09-12T10:15:19.392Z,51.29
2022-09-12T10:17:49.805Z,53.93
2022-09-12T10:20:32.402Z,49.43
2022-09-12T10:23:02.358Z,43.52
2022-09-12T10:25:31.093Z,42.80
2022-09-12T10:28:03.003Z,42.54
2022-09-12T10:30:33.009Z,45.34
2022-09-12T10:33:10.073Z,43.24
2022-09-12T10:35:47.266Z,45.79
2022-09-12T10:38:22.865Z,45.29
2022-09-12T10:40:59.364Z,43.93
2022-09-12T10:43:33.659Z,47.66
2022-09-12T10:46:31.151Z,47.54
2022-09-12T10:49:26.489Z,50.47
2022-09-12T10:51:55.975Z,49.67
2022-09-12T10:54:27.391Z,51.73
2022-09-12T10:57:14.674Z,52.37
2022-09-12T10:59:59.776Z,52.00
2022-09-12T11:02:35.672Z,48.59
2022-09-12T11:05:11.841Z,48.04
2022-09-12T11:07:45.153Z,51.28
2022-09-12T11:10:19.237Z,48.80
2022-09-12T11:12:54.408Z,53.06
2022-09-12T11:15:40.764Z,52.19
2022-09-12T11:18:20.888Z,53.37
2022-09-12T11:21:03.063Z,52.92
2022-09-12T11:23:53.590Z,49.48
2022-09-12T11:26:32.494Z,54.38
2022-09-12T11:29:10.951Z,55.12
2022-09-12T11:31:57.407Z,54.73
2022-09-12T11:34:38.746Z,50.35
2022-09-12T11:37:29.039Z,52.89
2022-09-12T11:40:00.565Z,51.12
2022-09-12T11:42:34.288Z,47.26
2022-09-12T11:45:09.144Z,53.15
2022-09-12T11:47:38.503Z,47.97
2022-09-12T11:50:26.680Z,44.82
2022-09-12T11:53:00.078Z,45.29
2022-09-12T11:55:30.421Z,45.62
2022-09-12T11:57:59.518Z,46.22
2022-09-12T12:00:33.208Z,43.70
2022-09-12T12:03:10.173Z,42.70
2022-09-12T12:05:47.498Z,43.12
2022-09-12T12:08:15.966Z,44.65
2022-09-12T12:10:49.892Z,43.42
2022-09-12T12:13:21.000Z,46.12
2022-09-12T12:15:51.823Z,43.15
2022-09-12T12:18:23.821Z,43.99
2022-09-12T12:20:54.405Z,41.58
2022-09-12T12:23:28.534Z,44.58
2022-09-12T12:25:57.872Z,42.59
2022-09-12T12:29:01.870Z,42.60
2022-09-12T12:31:29.744Z,41.92
2022-09-12T12:34:28.881Z,41.89
2022-09-12T12:36:59.120Z,44.71
2022-09-12T12:40:01.130Z,45.88
2022-09-12T12:43:07.542Z,46.76
2022-09-12T12:46:12.934Z,44.51
2022-09-12T12:49:07.030Z,45.37
2022-09-12T12:52:02.593Z,43.95
2022-09-12T12:54:50.089Z,45.15
2022-09-12T12:57:29.891Z,44.73
2022-09-12T13:00:02.406Z,44.82
2022-09-12T13:02:35.839Z,46.61
2022-09-12T13:05:08.699Z,46.67
2022-09-12T13:07:41.537Z,44.69
2022-09-12T13:10:11.601Z,43.69
2022-09-12T13:12:47.347Z,44.35
2022-09-12T13:15:49.791Z,45.18
2022-09-12T13:18:25.191Z,45.07
2022-09-12T13:20:59.483Z,46.07
2022-09-12T13:23:33.660Z,46.79
2022-09-12T13:26:03.705Z,47.88
2022-09-12T13:28:32.620Z,48.44
2022-09-12T13:31:04.031Z,46.83
2022-09-12T13:33:42.377Z,47.42
2022-09-12T13:36:38.471Z,46.85
2022-09-12T13:39:17.328Z,46.25
2022-09-12T13:42:09.249Z,46.87
2022-09-12T13:44:44.066Z,46.33
2022-09-12T13:47:16.631Z,48.85
2022-09-12T13:49:46.356Z,47.18
2022-09-12T13:52:20.653Z,47.65
2022-09-12T13:54:53.107Z,46.32
2022-09-12T13:57:33.687Z,47.11
2022-09-12T14:00:05.909Z,49.44
2022-09-12T14:02:36.771Z,46.55
2022-09-12T14:05:13.251Z,48.51
2022-09-12T14:07:55.005Z,46.01
2022-09-12T14:10:29.182Z,45.20
2022-09-12T14:12:58.755Z,47.88
2022-09-12T14:15:29.957Z,47.86
2022-09-12T14:17:59.707Z,47.60
2022-09-12T14:20:31.112Z,46.58
2022-09-12T14:23:02.684Z,49.16
2022-09-12T14:25:39.049Z,48.21
2022-09-12T14:28:07.650Z,46.14
2022-09-12T14:30:37.422Z,48.49
2022-09-12T14:33:21.956Z,46.87
2022-09-12T14:35:51.697Z,47.03
2022-09-12T14:38:25.625Z,46.76
2022-09-12T14:41:02.436Z,46.29
2022-09-12T14:43:32.336Z,46.54
2022-09-12T14:46:03.235Z,49.69
2022-09-12T14:48:34.449Z,47.59
2022-09-12T14:51:02.537Z,45.30
2022-09-12T14:53:35.149Z,44.59
2022-09-12T14:56:12.616Z,45.78
2022-09-12T14:58:41.447Z,45.55
2022-09-12T15:01:33.190Z,45.57
2022-09-12T15:04:01.130Z,47.26
2022-09-12T15:06:31.197Z,47.51
2022-09-12T15:09:01.257Z,46.28
2022-09-12T15:11:30.495Z,46.52
2022-09-12T15:13:58.328Z,47.16
2022-09-12T15:16:26.376Z,45.77
2022-09-12T15:18:54.251Z,47.14
2022-09-12T15:21:22.506Z,46.47
2022-09-12T15:23:51.868Z,46.43
2022-09-12T15:26:22.509Z,47.53
2022-09-12T15:28:52.396Z,46.13
2022-09-12T15:31:25.248Z,47.79
2022-09-12T15:33:53.500Z,49.45
2022-09-12T15:36:22.897Z,50.92
2022-09-12T15:38:51.684Z,49.41
2022-09-12T15:41:21.800Z,48.13
2022-09-12T15:43:51.735Z,50.74
2022-09-12T15:46:20.212Z,49.39
2022-09-12T15:48:48.190Z,49.68
2022-09-12T15:51:17.780Z,49.43
2022-09-12T15:53:46.609Z,50.87
2022-09-12T15:56:15.739Z,49.68
2022-09-12T15:58:57.735Z,49.20
2022-09-12T16:01:29.355Z,49.81
2022-09-12T16:03:57.421Z,50.08
2022-09-12T16:06:25.287Z,48.21
2022-09-12T16:08:53.284Z,49.19
2022-09-12T16:11:23.104Z,50.06
2022-09-12T16:13:52.612Z,50.72
2022-09-12T16:16:20.838Z,52.10
2022-09-12T16:18:50.224Z,51.44
2022-09-12T16:21:18.074Z,49.96
2022-09-12T16:23:46.252Z,50.12
2022-09-12T16:26:14.369Z,52.30
2022-09-12T16:28:42.609Z,51.50
2022-09-12T16:31:13.155Z,53.35
2022-09-12T16:33:41.783Z,51.30
2022-09-12T16:36:13.133Z,51.73
2022-09-12T16:38:45.460Z,51.72
2022-09-12T16:41:14.163Z,51.16
2022-09-12T16:43:42.793Z,50.52
2022-09-12T16:46:13.418Z,51.29
2022-09-12T16:48:49.326Z,52.15
2022-09-12T16:51:22.946Z,51.40
2022-09-12T16:53:51.461Z,52.86
2022-09-12T16:56:19.765Z,51.81
2022-09-12T16:58:48.025Z,52.57
2022-09-12T17:01:18.799Z,53.00
2022-09-12T17:03:47.094Z,51.65
2022-09-12T17:06:16.654Z,52.28
2022-09-12T17:08:47.974Z,53.49
2022-09-12T17:11:18.516Z,53.85
2022-09-12T17:14:03.694Z,53.81
2022-09-12T17:16:34.116Z,55.42
2022-09-12T17:19:02.028Z,53.47
2022-09-12T17:21:29.941Z,53.30
2022-09-12T17:23:59.971Z,54.17
2022-09-12T17:26:28.301Z,54.27
2022-09-12T17:28:56.161Z,53.73
2022-09-12T17:31:24.202Z,54.12
2022-09-12T17:33:56.407Z,53.56
2022-09-12T17:36:24.311Z,54.64
2022-09-12T17:38:54.174Z,54.25
2022-09-12T17:41:25.367Z,54.79
2022-09-12T17:43:57.135Z,54.83
2022-09-12T17:46:27.360Z,54.14
2022-09-12T17:48:56.682Z,54.50
2022-09-12T17:51:25.953Z,56.18
2022-09-12T17:53:59.051Z,56.73
2022-09-12T17:56:29.553Z,55.55
2022-09-12T17:58:57.979Z,57.68
2022-09-12T18:01:44.524Z,57.06
2022-09-12T18:04:12.409Z,56.04
2022-09-12T18:06:40.854Z,54.07
2022-09-12T18:09:10.505Z,56.33
2022-09-12T18:11:39.802Z,56.51
2022-09-12T18:14:11.331Z,56.84
2022-09-12T18:16:41.442Z,55.65
2022-09-12T18:19:09.338Z,56.90
2022-09-12T18:21:37.341Z,54.87
2022-09-12T18:24:05.663Z,57.49
2022-09-12T18:26:34.502Z,57.00
2022-09-12T18:29:03.729Z,57.22
2022-09-12T18:31:32.017Z,57.43
2022-09-12T18:34:01.073Z,59.15
2022-09-12T18:38:58.653Z,60.56
2022-09-12T18:41:28.799Z,60.43
2022-09-12T18:43:58.110Z,59.96
2022-09-12T18:46:29.292Z,60.16
2022-09-12T18:48:58.391Z,58.92
2022-09-12T18:51:31.333Z,58.00
2022-09-12T18:54:01.310Z,59.38
2022-09-12T18:56:32.883Z,61.26
2022-09-12T18:59:02.729Z,59.81
2022-09-12T19:01:33.269Z,59.61
2022-09-12T19:04:04.664Z,58.86
2022-09-12T19:06:34.208Z,58.51
2022-09-12T19:09:07.421Z,59.08
2022-09-12T19:11:37.344Z,60.81
2022-09-12T19:14:05.841Z,62.08
2022-09-12T19:16:35.959Z,61.25
2022-09-12T19:19:04.037Z,61.06
2022-09-12T19:21:33.068Z,62.60
2022-09-12T19:24:02.396Z,63.01
2022-09-12T19:26:30.530Z,63.00
2022-09-12T19:28:58.568Z,61.46
2022-09-12T19:31:26.798Z,61.62
2022-09-12T19:34:01.605Z,62.04
2022-09-12T19:36:46.698Z,63.33
2022-09-12T19:39:16.450Z,63.42
2022-09-12T19:41:44.386Z,61.63
2022-09-12T19:44:12.641Z,62.97
2022-09-12T19:46:40.780Z,63.23
2022-09-12T19:49:11.305Z,63.13
2022-09-12T19:51:39.244Z,63.93
2022-09-12T19:54:07.741Z,63.85
2022-09-12T19:56:35.973Z,62.32
2022-09-12T19:59:03.869Z,62.27
2022-09-12T20:01:32.461Z,62.89
2022-09-12T20:04:00.509Z,61.77
2022-09-12T20:06:29.898Z,63.16
2022-09-12T20:08:57.995Z,63.64
2022-09-12T20:11:26.021Z,62.51
2022-09-12T20:13:53.999Z,62.77
2022-09-12T20:16:24.473Z,64.18
2022-09-12T20:18:57.327Z,61.90
2022-09-12T20:21:31.243Z,63.49
2022-09-12T20:24:06.369Z,62.61
2022-09-12T20:26:34.923Z,61.97
2022-09-12T20:29:03.279Z,62.62
2022-09-12T20:31:32.025Z,61.98
2022-09-12T20:34:00.071Z,62.93
2022-09-12T20:36:28.004Z,61.51
2022-09-12T20:38:57.937Z,61.57
2022-09-12T20:41:28.889Z,61.67
2022-09-12T20:43:58.182Z,62.64
2022-09-12T20:46:27.519Z,62.43
2022-09-12T20:48:55.833Z,61.38
2022-09-12T20:51:24.574Z,62.28
2022-09-12T20:53:54.346Z,63.78
2022-09-12T20:56:22.681Z,62.81
2022-09-12T20:58:52.135Z,62.63
2022-09-12T21:01:20.672Z,63.28
2022-09-12T21:03:49.667Z,62.83
2022-09-12T21:06:18.816Z,62.81
2022-09-12T21:08:47.848Z,62.76
2022-09-12T21:11:16.419Z,63.90
2022-09-12T21:13:44.740Z,63.84
2022-09-12T21:16:15.482Z,63.83
2022-09-12T21:18:43.672Z,64.17
2022-09-12T21:21:13.086Z,64.71
2022-09-12T21:23:41.506Z,64.44
2022-09-12T21:26:09.730Z,64.29
2022-09-12T21:28:37.673Z,64.59
2022-09-12T21:31:06.058Z,64.12
2022-09-12T21:33:35.614Z,64.55
2022-09-12T21:36:04.701Z,64.75
2022-09-12T21:38:33.089Z,65.02
2022-09-12T21:41:06.368Z,65.16
2022-09-12T21:43:34.259Z,63.95
2022-09-12T21:46:03.018Z,64.61
2022-09-12T21:48:31.261Z,64.80
2022-09-12T21:51:00.890Z,64.72
2022-09-12T21:53:29.202Z,64.97
2022-09-12T21:56:01.890Z,64.79
2022-09-12T21:58:29.751Z,65.22
2022-09-12T22:00:57.808Z,64.92
2022-09-12T22:03:26.019Z,65.23
2022-09-12T22:05:58.049Z,65.04
2022-09-12T22:08:27.682Z,65.13
2022-09-12T22:11:00.472Z,65.52
2022-09-12T22:13:28.536Z,64.90
2022-09-12T22:15:56.984Z,65.19
2022-09-12T22:18:24.977Z,65.03
2022-09-12T22:20:59.943Z,65.41
2022-09-12T22:23:46.649Z,65.36
2022-09-12T22:26:15.566Z,65.40
2022-09-12T22:28:43.933Z,65.89
2022-09-12T22:31:12.673Z,65.67
2022-09-12T22:33:41.331Z,65.81
2022-09-12T22:36:10.193Z,65.64
2022-09-12T22:38:39.809Z,66.24
2022-09-12T22:41:09.196Z,66.22
2022-09-12T22:43:37.421Z,66.02
2022-09-12T22:46:07.621Z,66.13
2022-09-12T22:48:35.686Z,66.19
2022-09-12T22:51:03.533Z,66.46
2022-09-12T22:53:31.444Z,66.56
2022-09-12T22:56:00.635Z,66.77
2022-09-12T22:58:28.486Z,66.32
2022-09-12T23:00:56.394Z,66.58
2022-09-12T23:03:24.316Z,66.42
2022-09-12T23:05:52.405Z,67.20
2022-09-12T23:08:20.353Z,66.45
2022-09-12T23:10:48.190Z,66.89
2022-09-12T23:13:17.763Z,66.74
2022-09-12T23:15:45.578Z,68.07
2022-09-12T23:18:13.407Z,67.01
2022-09-12T23:20:41.243Z,66.54
2022-09-12T23:23:09.655Z,66.32
2022-09-12T23:25:37.965Z,66.12
2022-09-12T23:28:05.780Z,67.46
2022-09-12T23:30:34.953Z,66.67
2022-09-12T23:33:02.778Z,68.32
2022-09-12T23:35:30.614Z,68.53
2022-09-12T23:37:58.454Z,67.89
2022-09-12T23:40:26.330Z,67.66
2022-09-12T23:42:54.583Z,67.49
2022-09-12T23:45:22.490Z,68.49
2022-09-12T23:47:51.722Z,67.89
2022-09-12T23:50:19.560Z,67.92
2022-09-12T23:52:47.360Z,68.35
2022-09-12T23:55:15.221Z,68.08
2022-09-12T23:57:43.701Z,67.90
